Time;durP1;ratioP1;P1;durP2;ratioP2;P2;SDS_P1;SDS_P2;PMS_P1;PMS_P2;Temp;Humidity;BMP_temperature;BMP_pressure;BME280_temperature;BME280_humidity;BME280_pressure;Samples;Min_cycle;Max_cycle;Signal;HPM_P1;HPM_P2
2024/03/16 00:00:33;;;;;;;15.00;9.55;;;;;;;8.60;100.00;100398.53;5098060;28;20497;-78
2024/03/16 00:02:59;;;;;;;14.77;9.43;;;;;;;8.26;100.00;100360.31;5081475;28;20525;-78
2024/03/16 00:05:25;;;;;;;15.38;10.40;;;;;;;8.40;100.00;100380.63;5088164;28;20477;-78
2024/03/16 00:07:51;;;;;;;15.18;9.40;;;;;;;8.45;100.00;100367.56;5088143;28;20031;-78
2024/03/16 00:10:16;;;;;;;13.77;9.10;;;;;;;8.38;100.00;100385.31;5087924;28;20024;-78
2024/03/16 00:12:42;;;;;;;16.92;9.40;;;;;;;8.57;100.00;100401.59;5087993;28;20032;-79
2024/03/16 00:15:07;;;;;;;14.18;9.23;;;;;;;8.07;100.00;100401.69;5087565;28;20031;-78
2024/03/16 00:17:33;;;;;;;14.50;9.35;;;;;;;8.17;100.00;100374.75;5087861;28;20031;-79
2024/03/16 00:19:58;;;;;;;14.25;8.52;;;;;;;8.32;100.00;100396.72;5069521;28;20029;-78
2024/03/16 00:22:24;;;;;;;15.18;10.13;;;;;;;8.27;100.00;100385.84;5087624;28;20077;-78
2024/03/16 00:24:49;;;;;;;17.48;9.93;;;;;;;7.70;100.00;100355.03;5087426;28;20031;-78
2024/03/16 00:27:15;;;;;;;17.08;9.40;;;;;;;7.39;100.00;100374.78;5085305;28;20024;-78
2024/03/16 00:29:40;;;;;;;15.65;9.98;;;;;;;8.07;100.00;100395.53;5068819;28;20048;-79
2024/03/16 00:32:06;;;;;;;15.82;9.75;;;;;;;7.75;100.00;100369.38;5087989;28;20027;-78
2024/03/16 00:34:32;;;;;;;15.25;9.73;;;;;;;7.19;100.00;100359.53;5087910;28;20055;-78
2024/03/16 00:37:02;;;;;;;16.55;10.48;;;;;;;7.27;100.00;100402.84;5086663;28;20059;-78
2024/03/16 00:39:27;;;;;;;12.98;7.90;;;;;;;6.89;100.00;100366.75;5085510;28;20032;-77
2024/03/16 00:41:53;;;;;;;15.50;8.95;;;;;;;7.11;100.00;100380.03;5069331;28;20034;-78
2024/03/16 00:44:19;;;;;;;16.48;9.15;;;;;;;7.48;100.00;100384.28;5087381;28;20028;-79
2024/03/16 00:46:45;;;;;;;16.52;9.95;;;;;;;7.55;100.00;100340.03;5087404;28;20035;-79
2024/03/16 00:49:10;;;;;;;17.35;10.60;;;;;;;7.78;100.00;100381.44;5069362;28;20651;-78
2024/03/16 00:51:36;;;;;;;16.50;10.00;;;;;;;7.72;100.00;100383.03;5087353;28;20020;-78
2024/03/16 00:54:01;;;;;;;17.20;10.20;;;;;;;7.46;100.00;100373.03;5086598;28;20040;-77
2024/03/16 00:56:27;;;;;;;16.95;11.10;;;;;;;7.36;100.00;100372.53;5068767;28;20036;-78
2024/03/16 00:58:52;;;;;;;18.50;11.73;;;;;;;7.56;100.00;100384.16;5087248;28;20081;-78
2024/03/16 01:01:18;;;;;;;19.55;12.70;;;;;;;7.51;100.00;100391.84;5068887;28;20031;-79
2024/03/16 01:03:43;;;;;;;20.58;11.70;;;;;;;7.14;100.00;100337.22;5068545;28;20480;-78
2024/03/16 01:06:09;;;;;;;21.80;11.30;;;;;;;6.95;100.00;100373.16;5069138;28;20081;-78
2024/03/16 01:08:35;;;;;;;20.75;11.18;;;;;;;6.68;100.00;100362.25;5068678;28;20369;-79
2024/03/16 01:11:00;;;;;;;27.40;12.18;;;;;;;6.91;100.00;100385.13;5068954;28;20040;-78
2024/03/16 01:13:25;;;;;;;22.63;12.35;;;;;;;7.04;100.00;100383.44;5068617;28;20443;-79
2024/03/16 01:15:51;;;;;;;18.77;11.73;;;;;;;6.30;100.00;100362.38;5086773;28;20107;-79
2024/03/16 01:18:17;;;;;;;21.90;12.50;;;;;;;6.78;100.00;100383.97;5086945;28;20032;-78
2024/03/16 01:20:44;;;;;;;21.05;12.25;;;;;;;6.47;100.00;100372.78;5087018;28;20031;-78
2024/03/16 01:23:10;;;;;;;19.55;11.18;;;;;;;6.62;100.00;100373.59;5086572;28;20032;-78
2024/03/16 01:25:35;;;;;;;21.55;12.93;;;;;;;6.71;100.00;100353.09;5086548;28;20081;-78
2024/03/16 01:28:01;;;;;;;17.85;10.95;;;;;;;6.79;100.00;100398.84;5086542;28;20036;-79
2024/03/16 01:30:26;;;;;;;19.98;10.48;;;;;;;6.24;100.00;100385.09;5068357;28;20085;-78
2024/03/16 01:32:51;;;;;;;17.80;10.75;;;;;;;6.64;100.00;100368.94;5086420;28;20390;-78
2024/03/16 01:35:17;;;;;;;18.05;10.32;;;;;;;6.35;100.00;100362.63;5085030;28;20400;-78
2024/03/16 01:37:42;;;;;;;17.63;10.63;;;;;;;6.53;100.00;100372.84;5086888;28;20119;-78
2024/03/16 01:40:09;;;;;;;16.98;10.60;;;;;;;6.53;100.00;100343.69;5068321;28;20031;-78
2024/03/16 01:42:34;;;;;;;17.88;10.75;;;;;;;6.86;100.00;100375.06;5086748;28;20060;-78
2024/03/16 01:45:17;;;;;;;18.50;10.82;;;;;;;6.99;100.00;100377.88;5086448;28;20063;-79
2024/03/16 01:47:43;;;;;;;16.95;11.18;;;;;;;6.95;100.00;100381.09;5087164;28;20613;-78
2024/03/16 01:50:08;;;;;;;19.27;11.35;;;;;;;6.83;100.00;100388.72;5086585;28;20020;-78
2024/03/16 01:52:35;;;;;;;19.90;11.05;;;;;;;6.74;100.00;100388.00;5068543;28;20035;-78
2024/03/16 01:55:00;;;;;;;18.55;11.05;;;;;;;6.64;100.00;100377.69;5086416;28;20059;-78
2024/03/16 01:57:26;;;;;;;20.67;11.60;;;;;;;6.57;100.00;100378.59;5068183;28;20032;-78
2024/03/16 01:59:51;;;;;;;17.15;10.55;;;;;;;6.76;100.00;100399.25;5068341;28;20047;-78
2024/03/16 02:02:30;;;;;;;17.40;10.10;;;;;;;6.57;100.00;100399.81;5086226;28;20089;-79
2024/03/16 02:04:56;;;;;;;17.27;9.65;;;;;;;6.59;100.00;100405.75;5068182;28;20032;-79
2024/03/16 02:07:21;;;;;;;15.55;9.95;;;;;;;6.16;100.00;100353.41;5086713;28;20031;-78
2024/03/16 02:09:47;;;;;;;17.88;10.45;;;;;;;6.40;100.00;100393.88;5090543;28;20436;-78
2024/03/16 02:12:15;;;;;;;17.23;10.98;;;;;;;6.31;100.00;100373.78;5090356;28;20110;-78
2024/03/16 02:14:40;;;;;;;;;;;;;;;6.53;100.00;100403.81;5090871;28;20128;-79
2024/03/16 02:17:08;;;;;;;17.33;9.65;;;;;;;6.53;100.00;100398.53;5089923;28;20420;-78
2024/03/16 02:19:35;;;;;;;14.43;7.90;;;;;;;6.30;100.00;100410.03;5089990;28;20032;-78
2024/03/16 02:22:00;;;;;;;14.10;7.90;;;;;;;5.93;100.00;100377.31;5090539;28;20038;-78
2024/03/16 02:24:25;;;;;;;15.55;8.63;;;;;;;6.00;100.00;100398.59;5071591;28;20036;-78
2024/03/16 02:26:51;;;;;;;15.35;8.73;;;;;;;5.88;100.00;100397.38;5071476;28;20090;-78
2024/03/16 02:29:18;;;;;;;16.27;9.65;;;;;;;5.87;100.00;100367.44;5089755;28;20592;-78
2024/03/16 02:31:43;;;;;;;17.92;10.20;;;;;;;6.09;100.00;100413.41;5090273;28;20097;-77
2024/03/16 02:34:09;;;;;;;17.58;10.05;;;;;;;5.91;100.00;100389.91;5090227;28;20447;-77
2024/03/16 02:36:34;;;;;;;17.58;10.85;;;;;;;5.78;100.00;100401.09;5089193;28;20527;-78
2024/03/16 02:38:59;;;;;;;19.48;9.52;;;;;;;5.40;100.00;100401.06;5089972;28;20024;-79
2024/03/16 02:41:25;;;;;;;17.10;10.07;;;;;;;5.33;100.00;100420.47;5089698;28;20094;-78
2024/03/16 02:43:50;;;;;;;15.57;9.50;;;;;;;4.97;100.00;100428.94;5071524;28;20470;-78
2024/03/16 02:46:16;;;;;;;17.70;10.95;;;;;;;4.68;100.00;100411.06;5071137;28;20028;-78
2024/03/16 02:48:41;;;;;;;19.65;10.32;;;;;;;5.20;100.00;100419.22;5089669;28;20034;-78
2024/03/16 02:51:07;;;;;;;16.48;8.98;;;;;;;5.58;100.00;100424.59;5070947;28;20043;-78
2024/03/16 02:53:34;;;;;;;16.08;9.52;;;;;;;5.16;100.00;100441.72;5089521;28;20085;-78
2024/03/16 02:56:00;;;;;;;13.43;7.53;;;;;;;4.41;100.00;100437.75;5089404;28;20024;-78
2024/03/16 02:58:25;;;;;;;11.35;6.20;;;;;;;3.90;100.00;100421.31;5070800;28;20044;-79
2024/03/16 03:00:51;;;;;;;12.93;7.28;;;;;;;3.67;100.00;100441.47;5071170;28;20565;-78
2024/03/16 03:03:17;;;;;;;14.60;7.50;;;;;;;3.80;100.00;100452.34;5088856;28;20970;-78
2024/03/16 03:05:42;;;;;;;12.05;7.03;;;;;;;3.94;100.00;100425.31;5089033;28;20056;-79
2024/03/16 03:08:08;;;;;;;11.50;5.97;;;;;;;3.80;100.00;100423.31;5070847;28;20038;-79
2024/03/16 03:10:33;;;;;;;12.82;6.65;;;;;;;3.48;100.00;100422.34;5071228;28;20024;-79
2024/03/16 03:12:59;;;;;;;12.18;6.35;;;;;;;3.33;100.00;100437.13;5089064;28;20028;-78
2024/03/16 03:15:24;;;;;;;14.82;6.35;;;;;;;3.53;100.00;100425.28;5070734;28;20058;-77
2024/03/16 03:17:49;;;;;;;13.05;7.28;;;;;;;4.09;100.00;100456.31;5088990;28;20032;-78
2024/03/16 03:20:15;;;;;;;16.88;8.18;;;;;;;4.16;100.00;100409.75;5087826;28;20028;-78
2024/03/16 03:22:40;;;;;;;17.30;8.38;;;;;;;4.77;100.00;100462.88;5089001;28;20408;-78
2024/03/16 03:25:06;;;;;;;15.65;8.52;;;;;;;4.76;100.00;100472.66;5088428;28;20020;-78
2024/03/16 03:27:33;;;;;;;16.30;8.25;;;;;;;4.87;100.00;100454.75;5070359;28;20032;-78
2024/03/16 03:29:59;;;;;;;18.58;9.20;;;;;;;5.13;100.00;100451.81;5088682;28;20063;-78
2024/03/16 03:32:24;;;;;;;19.67;9.13;;;;;;;5.19;100.00;100469.63;5088773;28;20024;-77
2024/03/16 03:34:49;;;;;;;20.05;9.80;;;;;;;5.21;100.00;100455.25;5088242;28;20042;-79
2024/03/16 03:37:15;;;;;;;18.75;9.23;;;;;;;4.91;100.00;100434.94;5070272;28;20016;-78
2024/03/16 03:39:41;;;;;;;13.68;6.95;;;;;;;4.56;100.00;100468.75;5088385;28;20031;-78
2024/03/16 03:42:06;;;;;;;13.70;7.72;;;;;;;4.19;100.00;100455.13;5088448;28;20031;-77
2024/03/16 03:44:38;;;;;;;13.45;6.90;;;;;;;4.59;100.00;100434.88;5070236;28;20173;-78
2024/03/16 03:47:04;;;;;;;13.70;7.03;;;;;;;4.20;100.00;100469.13;5088027;28;20594;-79
2024/03/16 03:49:32;;;;;;;14.63;8.25;;;;;;;4.05;100.00;100444.44;5088098;28;20036;-78
2024/03/16 03:51:58;;;;;;;13.93;7.10;;;;;;;4.66;100.00;100481.75;5088371;28;20035;-78
2024/03/16 03:54:24;;;;;;;13.85;7.70;;;;;;;4.55;100.00;100482.94;5069851;28;20110;-77
2024/03/16 03:56:49;;;;;;;14.60;7.35;;;;;;;4.85;100.00;100480.53;5087888;28;20035;-79
2024/03/16 03:59:15;;;;;;;17.08;11.35;;;;;;;4.66;100.00;100458.81;5087666;28;20119;-78
2024/03/16 04:01:41;;;;;;;17.35;9.43;;;;;;;4.40;100.00;100459.88;5087935;28;20056;-78
2024/03/16 04:04:06;;;;;;;16.55;8.25;;;;;;;4.66;100.00;100464.09;5069777;28;20063;-77
2024/03/16 04:06:31;;;;;;;13.98;7.80;;;;;;;4.53;100.00;100467.25;5069855;28;20036;-77
2024/03/16 04:08:57;;;;;;;15.10;7.85;;;;;;;4.61;100.00;100476.97;5087125;28;20066;-77
2024/03/16 04:11:23;;;;;;;14.40;7.40;;;;;;;4.20;100.00;100454.13;5087929;28;20047;-77
2024/03/16 04:13:48;;;;;;;14.13;7.43;;;;;;;3.96;100.00;100446.22;5069406;28;20027;-76
2024/03/16 04:16:14;;;;;;;17.20;10.40;;;;;;;3.92;100.00;100492.41;5086953;28;20035;-78
2024/03/16 04:18:40;;;;;;;12.82;6.75;;;;;;;3.73;100.00;100488.28;5086932;28;20606;-77
2024/03/16 04:21:07;;;;;;;11.68;6.30;;;;;;;3.61;100.00;100490.41;5087921;28;20020;-77
2024/03/16 04:23:32;;;;;;;15.98;7.68;;;;;;;3.80;100.00;100499.81;5087255;28;20416;-77
2024/03/16 04:25:58;;;;;;;22.05;9.95;;;;;;;3.32;100.00;100490.84;5087113;28;20024;-78
2024/03/16 04:28:23;;;;;;;19.48;9.02;;;;;;;3.35;100.00;100485.25;5086849;28;20489;-78
2024/03/16 04:30:49;;;;;;;21.00;10.73;;;;;;;3.75;100.00;100502.13;5068203;28;20020;-78
2024/03/16 04:33:15;;;;;;;24.35;11.90;;;;;;;3.78;100.00;100505.28;5069195;28;20028;-78
2024/03/16 04:35:41;;;;;;;24.90;14.10;;;;;;;4.23;100.00;100516.34;5087045;28;20081;-77
2024/03/16 04:38:09;;;;;;;26.27;13.88;;;;;;;4.48;100.00;100492.53;5086911;28;20031;-77
2024/03/16 04:40:35;;;;;;;19.45;11.43;;;;;;;4.93;100.00;100505.09;5087153;28;20020;-77
2024/03/16 04:43:00;;;;;;;23.90;14.32;;;;;;;4.61;100.00;100529.81;5087152;28;20094;-77
2024/03/16 04:45:26;;;;;;;23.55;14.68;;;;;;;4.76;100.00;100525.50;5068843;28;20548;-78
2024/03/16 04:47:52;;;;;;;25.35;13.63;;;;;;;4.77;100.00;100529.75;5086742;28;20039;-78
2024/03/16 04:50:17;;;;;;;24.00;14.43;;;;;;;5.03;100.00;100526.06;5086861;28;20032;-77
2024/03/16 04:52:43;;;;;;;26.15;15.73;;;;;;;4.92;100.00;100531.69;5068761;28;20078;-77
2024/03/16 04:55:08;;;;;;;32.42;18.40;;;;;;;5.31;100.00;100512.38;5086943;28;20019;-77
2024/03/16 04:57:33;;;;;;;31.95;16.17;;;;;;;5.27;100.00;100508.41;5068669;28;20054;-77
2024/03/16 04:59:59;;;;;;;31.02;15.95;;;;;;;5.42;100.00;100533.97;5086739;28;20035;-77
2024/03/16 05:02:25;;;;;;;29.42;14.55;;;;;;;5.17;100.00;100535.91;5086982;28;20043;-77
2024/03/16 05:04:51;;;;;;;30.67;16.80;;;;;;;5.19;100.00;100533.06;5086879;28;20397;-77
2024/03/16 05:07:16;;;;;;;31.35;16.02;;;;;;;5.50;100.00;100541.03;5086879;28;20028;-78
2024/03/16 05:09:42;;;;;;;32.03;16.92;;;;;;;5.14;100.00;100520.38;5068301;28;20024;-77
2024/03/16 05:12:07;;;;;;;53.42;19.55;;;;;;;5.12;100.00;100540.88;5087069;28;20713;-77
2024/03/16 05:14:33;;;;;;;30.42;14.57;;;;;;;5.24;100.00;100531.56;5086560;28;20042;-77
2024/03/16 05:16:58;;;;;;;31.70;16.42;;;;;;;4.94;100.00;100541.09;5086596;28;20031;-77
2024/03/16 05:19:25;;;;;;;26.08;14.23;;;;;;;4.94;100.00;100535.00;5086433;28;20085;-76
2024/03/16 05:21:50;;;;;;;30.80;16.05;;;;;;;5.02;100.00;100540.25;5086501;28;20489;-77
2024/03/16 05:24:16;;;;;;;30.40;13.75;;;;;;;5.01;100.00;100528.06;5068636;28;20025;-78
2024/03/16 05:26:41;;;;;;;27.75;17.77;;;;;;;5.03;100.00;100528.69;5085940;28;20036;-77
2024/03/16 05:29:07;;;;;;;26.30;15.80;;;;;;;5.14;100.00;100533.59;5086164;28;20052;-76
2024/03/16 05:31:32;;;;;;;29.52;15.38;;;;;;;5.39;100.00;100555.50;5086387;28;20035;-77
2024/03/16 05:33:58;;;;;;;27.88;16.20;;;;;;;5.46;100.00;100538.94;5086658;28;20031;-77
2024/03/16 05:36:23;;;;;;;36.65;19.90;;;;;;;5.58;100.00;100545.47;5086345;28;20107;-77
2024/03/16 05:38:49;;;;;;;40.97;23.50;;;;;;;5.82;100.00;100555.06;5086052;28;20055;-77
2024/03/16 05:41:15;;;;;;;37.83;22.48;;;;;;;5.71;100.00;100545.72;5086072;28;20035;-76
2024/03/16 05:43:44;;;;;;;36.80;21.48;;;;;;;5.64;100.00;100548.22;5089165;28;20032;-76
2024/03/16 05:46:12;;;;;;;40.20;22.45;;;;;;;5.90;100.00;100511.84;5090389;28;20031;-76
2024/03/16 05:48:38;;;;;;;38.92;21.65;;;;;;;6.15;100.00;100536.31;5071938;28;20053;-77
2024/03/16 05:51:05;;;;;;;32.70;17.38;;;;;;;6.01;100.00;100535.28;5090288;28;20153;-77
2024/03/16 05:53:30;;;;;;;27.90;16.52;;;;;;;6.29;100.00;100546.13;5072252;28;20463;-77
2024/03/16 05:55:56;;;;;;;33.80;16.95;;;;;;;6.31;100.00;100524.75;5089811;28;20040;-76
2024/03/16 05:58:22;;;;;;;26.65;16.23;;;;;;;6.61;100.00;100544.19;5089852;28;20111;-76
2024/03/16 06:00:48;;;;;;;26.05;15.82;;;;;;;6.63;100.00;100542.16;5090436;28;20024;-77
2024/03/16 06:03:13;;;;;;;29.40;16.38;;;;;;;6.64;100.00;100517.34;5089622;28;20472;-77
2024/03/16 06:05:40;;;;;;;33.10;17.05;;;;;;;6.88;100.00;100531.31;5090026;28;20602;-77
2024/03/16 06:08:05;;;;;;;26.67;16.55;;;;;;;6.95;100.00;100529.59;5071538;28;20044;-77
2024/03/16 06:10:31;;;;;;;29.58;16.20;;;;;;;6.90;100.00;100539.91;5090178;28;20039;-76
2024/03/16 06:12:58;;;;;;;31.65;17.70;;;;;;;7.14;100.00;100534.31;5089778;28;20024;-79
2024/03/16 06:15:23;;;;;;;33.50;17.55;;;;;;;7.27;100.00;100543.44;5086286;28;20554;-77
2024/03/16 06:17:49;;;;;;;31.50;17.42;;;;;;;7.03;100.00;100527.66;5089684;28;20046;-78
2024/03/16 06:20:15;;;;;;;32.10;16.38;;;;;;;7.31;100.00;100539.41;5089589;28;20047;-78
2024/03/16 06:22:41;;;;;;;26.65;16.33;;;;;;;7.38;100.00;100519.09;5089908;28;20081;-77
2024/03/16 06:25:08;;;;;;;30.48;16.27;;;;;;;7.69;100.00;100552.50;5089574;28;20024;-77
2024/03/16 06:27:40;;;;;;;30.40;17.45;;;;;;;7.75;100.00;100551.75;5089765;28;20032;-78
2024/03/16 06:30:07;;;;;;;34.03;19.88;;;;;;;8.31;100.00;100551.84;5088881;28;20095;-78
2024/03/16 06:32:38;;;;;;;31.67;17.23;;;;;;;7.74;100.00;100540.28;5089637;28;20032;-77
2024/03/16 06:35:06;;;;;;;28.92;17.80;;;;;;;8.02;100.00;100551.00;5071251;28;20020;-77
2024/03/16 06:37:32;;;;;;;30.70;16.83;;;;;;;7.87;100.00;100534.31;5070908;28;20079;-78
2024/03/16 06:39:57;;;;;;;31.88;16.20;;;;;;;7.76;100.00;100553.38;5089226;28;20549;-77
2024/03/16 06:42:23;;;;;;;36.80;20.27;;;;;;;7.75;100.00;100557.88;5089620;28;20107;-77
2024/03/16 06:44:49;;;;;;;31.95;17.17;;;;;;;7.82;100.00;100552.63;5089445;28;20028;-78
2024/03/16 06:47:14;;;;;;;28.45;15.00;;;;;;;7.67;100.00;100520.03;5088934;28;20089;-77
2024/03/16 06:49:40;;;;;;;33.95;19.17;;;;;;;8.05;100.00;100553.28;5089314;28;20039;-77
2024/03/16 06:52:05;;;;;;;24.90;14.40;;;;;;;7.95;100.00;100562.59;5070940;28;20035;-77
2024/03/16 06:54:31;;;;;;;25.92;13.60;;;;;;;7.80;100.00;100554.66;5089072;28;20707;-78
2024/03/16 06:56:56;;;;;;;24.13;12.32;;;;;;;7.95;100.00;100555.44;5070236;28;20412;-77
2024/03/16 06:59:22;;;;;;;30.23;18.70;;;;;;;8.08;100.00;100556.56;5087919;28;20552;-77
2024/03/16 07:01:47;;;;;;;23.20;11.63;;;;;;;8.15;100.00;100568.91;5088335;28;20028;-77
2024/03/16 07:04:15;;;;;;;29.38;21.10;;;;;;;8.21;100.00;100546.03;5078742;28;20028;-77
2024/03/16 07:06:40;;;;;;;26.30;15.50;;;;;;;8.67;100.00;100550.94;5087521;28;20032;-77
2024/03/16 07:09:08;;;;;;;32.90;16.33;;;;;;;8.37;100.00;100575.00;5087825;28;20305;-77
2024/03/16 07:11:34;;;;;;;22.52;13.35;;;;;;;8.45;100.00;100569.59;5086508;28;20081;-77
2024/03/16 07:13:59;;;;;;;34.70;16.95;;;;;;;8.82;100.00;100575.56;5088609;28;20357;-77
2024/03/16 07:16:25;;;;;;;40.58;18.85;;;;;;;8.32;100.00;100548.19;5066983;28;20461;-78
2024/03/16 07:18:50;;;;;;;40.88;19.92;;;;;;;8.37;100.00;100561.72;5070480;28;20482;-77
2024/03/16 07:21:19;;;;;;;33.67;22.88;;;;;;;8.50;100.00;100554.88;5082927;28;20024;-76
2024/03/16 07:23:46;;;;;;;27.38;14.18;;;;;;;8.67;100.00;100576.72;5086520;28;20132;-76
2024/03/16 07:26:12;;;;;;;34.97;18.90;;;;;;;8.85;100.00;100564.56;5088305;28;20676;-77
2024/03/16 07:28:38;;;;;;;34.67;18.95;;;;;;;8.76;100.00;100543.63;5087981;28;20055;-77
2024/03/16 07:31:04;;;;;;;55.28;28.98;;;;;;;8.63;100.00;100568.28;5070113;28;20034;-77
2024/03/16 07:33:30;;;;;;;27.38;15.38;;;;;;;8.52;100.00;100579.44;5087034;28;20123;-77
2024/03/16 07:35:55;;;;;;;39.25;20.70;;;;;;;8.49;100.00;100570.03;5088591;28;20419;-77
2024/03/16 07:38:21;;;;;;;34.38;19.15;;;;;;;8.49;100.00;100571.88;5087244;28;20035;-77
2024/03/16 07:40:46;;;;;;;50.80;25.38;;;;;;;8.51;100.00;100583.13;5088265;28;20027;-78
2024/03/16 07:43:13;;;;;;;33.72;20.55;;;;;;;9.17;100.00;100594.19;5088210;28;20023;-77
2024/03/16 07:45:42;;;;;;;27.67;16.48;;;;;;;8.84;100.00;100578.84;5088041;28;20024;-77
2024/03/16 07:48:08;;;;;;;41.30;20.95;;;;;;;8.70;100.00;100592.25;5087528;28;20028;-78
2024/03/16 07:50:35;;;;;;;30.75;17.63;;;;;;;8.99;100.00;100596.53;5087834;28;20016;-78
2024/03/16 07:53:00;;;;;;;25.10;14.00;;;;;;;8.77;100.00;100591.31;5087806;28;20027;-76
2024/03/16 07:55:27;;;;;;;29.40;12.73;;;;;;;8.70;100.00;100603.72;5075414;28;20027;-77
2024/03/16 07:57:52;;;;;;;26.05;13.65;;;;;;;8.64;100.00;100596.50;5087562;28;20024;-77
2024/03/16 08:00:18;;;;;;;54.63;39.92;;;;;;;9.30;100.00;100582.00;5087542;28;20065;-78
2024/03/16 08:02:43;;;;;;;33.75;22.60;;;;;;;9.23;100.00;100561.50;5069760;28;20028;-78
2024/03/16 08:05:11;;;;;;;51.42;39.97;;;;;;;9.28;100.00;100589.38;5087185;28;20123;-77
2024/03/16 08:07:38;;;;;;;21.05;12.00;;;;;;;9.71;100.00;100594.44;5087641;28;20028;-77
2024/03/16 08:10:03;;;;;;;23.90;17.00;;;;;;;9.71;100.00;100565.16;5087426;28;20028;-77
2024/03/16 08:12:29;;;;;;;33.45;18.85;;;;;;;9.47;100.00;100591.28;5087478;28;20031;-77
2024/03/16 08:14:54;;;;;;;24.73;15.23;;;;;;;9.58;100.00;100584.56;5087864;28;20512;-76
2024/03/16 08:17:21;;;;;;;44.55;21.15;;;;;;;9.16;100.00;100554.50;5087277;28;20032;-76
2024/03/16 08:19:47;;;;;;;46.42;23.17;;;;;;;9.41;100.00;100590.22;5087221;28;20031;-77
2024/03/16 08:22:12;;;;;;;51.88;25.90;;;;;;;9.36;100.00;100592.66;5087417;28;20036;-77
2024/03/16 08:24:38;;;;;;;27.08;15.20;;;;;;;9.51;100.00;100552.59;5087469;28;20643;-77
2024/03/16 08:27:03;;;;;;;23.58;13.55;;;;;;;9.95;100.00;100599.22;5069274;28;20036;-77
2024/03/16 08:29:29;;;;;;;21.58;12.73;;;;;;;9.52;100.00;100586.19;5086376;28;20070;-78
2024/03/16 08:31:55;;;;;;;25.23;15.00;;;;;;;9.50;100.00;100577.59;5068549;28;20055;-77
2024/03/16 08:34:20;;;;;;;41.83;21.65;;;;;;;9.61;100.00;100541.56;5086774;28;20043;-77
2024/03/16 08:36:46;;;;;;;27.80;15.15;;;;;;;10.06;100.00;100579.16;5085990;28;20046;-76
2024/03/16 08:39:11;;;;;;;22.60;13.38;;;;;;;9.84;100.00;100541.19;5101779;28;20119;-77
2024/03/16 08:41:37;;;;;;;24.98;15.50;;;;;;;9.95;100.00;100575.25;5086026;28;20416;-77
2024/03/16 08:44:04;;;;;;;21.77;14.18;;;;;;;10.21;100.00;100568.28;5086614;28;20062;-77
2024/03/16 08:46:29;;;;;;;28.73;16.63;;;;;;;10.42;100.00;100589.47;5086516;28;20035;-76
2024/03/16 08:48:55;;;;;;;23.90;14.88;;;;;;;10.59;100.00;100592.53;5086016;28;20487;-76
2024/03/16 08:51:20;;;;;;;39.03;31.00;;;;;;;10.39;100.00;100581.88;5086252;28;20089;-77
2024/03/16 08:53:45;;;;;;;26.23;18.23;;;;;;;10.25;100.00;100580.19;5086645;28;20031;-75
2024/03/16 08:56:11;;;;;;;29.77;21.20;;;;;;;10.40;100.00;100585.34;5086320;28;20042;-77
2024/03/16 08:58:36;;;;;;;25.27;15.52;;;;;;;10.60;100.00;100578.19;5085737;28;20039;-77
2024/03/16 09:01:02;;;;;;;46.55;21.65;;;;;;;10.20;100.00;100572.00;5086033;28;20109;-77
2024/03/16 09:03:27;;;;;;;25.95;14.70;;;;;;;10.02;100.00;100575.25;5086272;28;20398;-77
2024/03/16 09:05:53;;;;;;;25.17;16.35;;;;;;;10.14;100.00;100572.81;5086355;28;20028;-77
2024/03/16 09:08:18;;;;;;;26.10;15.82;;;;;;;10.15;100.00;100585.09;5086309;28;21159;-76
2024/03/16 09:10:44;;;;;;;25.05;15.52;;;;;;;9.85;100.00;100564.97;5085633;28;20036;-77
2024/03/16 09:13:10;;;;;;;27.88;16.25;;;;;;;10.19;100.00;100570.34;5085086;28;20510;-77
2024/03/16 09:15:35;;;;;;;26.73;16.25;;;;;;;10.63;100.00;100579.63;5084329;28;20433;-77
2024/03/16 09:18:01;;;;;;;23.95;16.40;;;;;;;11.39;100.00;100578.22;5082669;28;20022;-77
2024/03/16 09:20:27;;;;;;;23.52;14.40;;;;;;;10.91;100.00;100551.84;5084160;28;20087;-77
2024/03/16 09:22:52;;;;;;;23.17;14.75;;;;;;;11.37;100.00;100574.94;5085188;28;20032;-77
2024/03/16 09:25:20;;;;;;;23.10;15.32;;;;;;;11.19;100.00;100543.56;5085148;28;20056;-76
2024/03/16 09:27:46;;;;;;;24.85;15.45;;;;;;;10.70;100.00;100580.41;5076545;28;253432;-77
2024/03/16 09:30:11;;;;;;;25.92;17.08;;;;;;;11.08;100.00;100574.41;5068375;28;20866;-76
2024/03/16 09:32:37;;;;;;;23.15;15.15;;;;;;;11.36;100.00;100570.59;5068652;28;20397;-77
2024/03/16 09:35:06;;;;;;;25.42;14.52;;;;;;;11.64;100.00;100572.94;5086842;28;20055;-78
2024/03/16 09:37:31;;;;;;;25.92;15.32;;;;;;;11.71;100.00;100572.91;5086612;28;20042;-76
2024/03/16 09:39:57;;;;;;;26.48;19.05;;;;;;;12.24;100.00;100568.09;5086535;28;20035;-76
2024/03/16 09:42:22;;;;;;;21.65;13.93;;;;;;;12.37;99.49;100567.16;5068392;28;20093;-77
2024/03/16 09:44:48;;;;;;;24.52;16.58;;;;;;;12.30;98.47;100554.88;5086727;28;20397;-76
2024/03/16 09:47:16;;;;;;;24.27;16.38;;;;;;;12.84;94.93;100570.22;5068363;28;20491;-78
2024/03/16 09:49:42;;;;;;;22.23;13.87;;;;;;;12.93;94.11;100559.22;5085955;28;20405;-77
2024/03/16 09:52:13;;;;;;;22.15;13.63;;;;;;;12.83;95.03;100578.47;5086163;28;20309;-76
2024/03/16 09:54:41;;;;;;;23.73;14.25;;;;;;;13.14;98.24;100561.47;5068722;28;20036;-77
2024/03/16 09:57:14;;;;;;;23.60;14.40;;;;;;;12.97;93.89;100563.09;5086293;28;20119;-76
2024/03/16 09:59:47;;;;;;;21.35;13.43;;;;;;;12.66;96.05;100562.97;5086400;28;20040;-75
2024/03/16 10:02:19;;;;;;;21.38;13.25;;;;;;;12.68;95.73;100573.47;5068101;28;20040;-78
2024/03/16 10:04:48;;;;;;;19.38;12.93;;;;;;;12.64;97.90;100543.66;5086701;28;20039;-76
2024/03/16 10:07:13;;;;;;;20.48;14.85;;;;;;;12.55;94.33;100557.56;5086566;28;20530;-76
2024/03/16 10:10:10;;;;;;;18.92;12.45;;;;;;;13.08;92.72;100557.03;5086126;28;20040;-77
2024/03/16 10:12:38;;;;;;;18.75;12.63;;;;;;;13.08;93.89;100565.06;5085171;28;20035;-76
2024/03/16 10:15:19;;;;;;;19.33;12.15;;;;;;;12.99;92.71;100544.97;5068453;28;20420;-76
2024/03/16 10:17:50;;;;;;;20.85;12.48;;;;;;;12.44;99.45;100533.16;5086163;28;20093;-76
2024/03/16 10:20:16;;;;;;;17.05;11.40;;;;;;;12.85;99.11;100537.09;5085938;28;20032;-76
2024/03/16 10:22:50;;;;;;;22.20;12.95;;;;;;;13.42;95.51;100519.94;5048229;28;20043;-76
2024/03/16 10:25:17;;;;;;;19.73;12.45;;;;;;;13.59;91.19;100542.41;5079258;28;20028;-75
2024/03/16 10:27:44;;;;;;;40.80;22.65;;;;;;;14.00;84.69;100538.09;5086653;28;20059;-76
2024/03/16 10:30:12;;;;;;;18.30;11.73;;;;;;;14.00;86.26;100543.47;5088190;28;20032;-77
2024/03/16 10:32:53;;;;;;;19.27;12.32;;;;;;;14.00;92.11;100519.31;5090201;28;20158;-76
2024/03/16 10:35:25;;;;;;;19.33;12.50;;;;;;;14.34;83.16;100508.84;5090515;28;21013;-76
2024/03/16 10:37:51;;;;;;;18.75;12.27;;;;;;;14.41;84.12;100516.81;5089646;28;20035;-77
2024/03/16 10:40:19;;;;;;;19.63;11.25;;;;;;;13.75;90.07;100507.94;5089719;28;20028;-78
2024/03/16 10:42:50;;;;;;;19.08;12.52;;;;;;;13.86;90.37;100517.91;5090200;28;20032;-76
2024/03/16 10:45:17;;;;;;;17.75;11.68;;;;;;;14.34;85.43;100514.22;5089819;28;20533;-76
2024/03/16 10:47:50;;;;;;;17.40;11.10;;;;;;;14.33;85.85;100499.19;5089970;28;20032;-77
2024/03/16 10:50:19;;;;;;;19.55;11.70;;;;;;;14.65;85.03;100507.72;5089634;28;20558;-77
2024/03/16 10:52:48;;;;;;;16.35;10.63;;;;;;;14.53;83.77;100498.03;5094385;28;20057;-78
2024/03/16 10:55:22;;;;;;;15.80;11.15;;;;;;;14.88;82.53;100494.50;5100023;28;20039;-77
2024/03/16 10:57:49;;;;;;;16.67;11.13;;;;;;;15.04;79.56;100512.56;5082598;28;20054;-77
2024/03/16 11:00:20;;;;;;;17.87;11.90;;;;;;;14.75;80.34;100495.56;5115409;28;20064;-77
2024/03/16 11:03:48;;;;;;;17.83;10.93;;;;;;;14.95;82.31;100500.56;5112171;28;20029;-77
2024/03/16 11:06:11;;;;;;;14.93;9.55;;;;;;;14.98;76.39;100497.41;5081710;28;20040;-78
2024/03/16 11:08:42;;;;;;;14.95;9.23;;;;;;;15.43;77.22;100491.31;5093809;28;20091;-78